createdAt,value
2024-02-24T00:04:02.865Z,103751.84
2024-02-24T00:09:06.593Z,103825.59
2024-02-24T00:14:10.487Z,103808.22
2024-02-24T00:19:14.342Z,103765.63
2024-02-24T00:24:17.505Z,103844.38
2024-02-24T00:29:20.516Z,103844.88
2024-02-24T00:34:23.782Z,103840.75
2024-02-24T00:39:28.070Z,103828.22
2024-02-24T00:44:32.394Z,103862.78
2024-02-24T00:49:35.488Z,103810.78
2024-02-24T00:54:38.271Z,103777.34
2024-02-24T00:59:41.412Z,103804.94
2024-02-24T01:04:45.167Z,103831.19
2024-02-24T01:09:48.116Z,103862.41
2024-02-24T01:14:51.666Z,103782.41
2024-02-24T01:19:55.304Z,103849.41
2024-02-24T01:24:58.268Z,103852.25
2024-02-24T01:30:01.260Z,103877.00
2024-02-24T01:35:05.037Z,103884.31
2024-02-24T01:40:08.550Z,103890.78
2024-02-24T01:45:15.748Z,103894.25
2024-02-24T01:50:18.717Z,103899.19
2024-02-24T01:55:21.498Z,103909.88
2024-02-24T02:00:25.220Z,103863.25
2024-02-24T02:05:28.408Z,103869.97
2024-02-24T02:10:49.866Z,103887.72
2024-02-24T02:15:56.077Z,103879.38
2024-02-24T02:21:03.541Z,103890.41
2024-02-24T02:26:08.579Z,103932.28
2024-02-24T02:31:12.790Z,103913.19
2024-02-24T02:36:16.535Z,103887.59
2024-02-24T02:41:19.651Z,103926.59
2024-02-24T02:46:22.517Z,103899.69
2024-02-24T02:51:25.504Z,103941.59
2024-02-24T02:56:28.328Z,103926.34
2024-02-24T03:01:31.477Z,103936.38
2024-02-24T03:06:35.233Z,103931.66
2024-02-24T03:11:38.259Z,103956.34
2024-02-24T03:16:42.217Z,103958.31
2024-02-24T03:21:45.823Z,103959.88
2024-02-24T03:26:49.732Z,103919.06
2024-02-24T03:31:53.870Z,103940.00
2024-02-24T03:36:56.765Z,103957.69
2024-02-24T03:41:59.883Z,103935.28
2024-02-24T03:47:03.121Z,103965.88
2024-02-24T03:52:06.950Z,103987.22
2024-02-24T03:57:09.690Z,103997.03
2024-02-24T04:02:12.657Z,103979.41
2024-02-24T04:07:16.664Z,103964.66
2024-02-24T04:12:19.827Z,103982.22
2024-02-24T04:17:22.617Z,103959.28
2024-02-24T04:22:25.876Z,103974.56
2024-02-24T04:27:29.749Z,104020.03
2024-02-24T04:32:33.018Z,104021.88
2024-02-24T04:37:37.864Z,103994.88
2024-02-24T04:42:41.570Z,103994.78
2024-02-24T04:47:44.784Z,104051.16
2024-02-24T04:52:48.044Z,104043.97
2024-02-24T04:57:51.012Z,104058.69
2024-02-24T05:02:54.326Z,103958.06
2024-02-24T05:07:57.664Z,104038.91
2024-02-24T05:13:02.986Z,104056.91
2024-02-24T05:18:07.620Z,104036.41
2024-02-24T05:23:11.286Z,104074.00
2024-02-24T05:28:14.447Z,104086.78
2024-02-24T05:33:20.087Z,104082.69
2024-02-24T05:38:23.390Z,104062.06
2024-02-24T05:43:27.195Z,104074.91
2024-02-24T05:48:31.354Z,104093.31
2024-02-24T05:53:36.857Z,104065.03
2024-02-24T05:58:40.893Z,104108.22
2024-02-24T06:03:44.108Z,104092.06
2024-02-24T06:08:47.862Z,104079.56
2024-02-24T06:13:54.027Z,104106.84
2024-02-24T06:18:59.489Z,104076.66
2024-02-24T06:24:02.788Z,104106.75
2024-02-24T06:29:05.948Z,104107.69
2024-02-24T06:34:09.456Z,104123.75
2024-02-24T06:39:12.805Z,104080.00
2024-02-24T06:44:16.549Z,104091.66
2024-02-24T06:49:19.793Z,104016.66
2024-02-24T06:54:23.185Z,104090.63
2024-02-24T06:59:26.505Z,104066.50
2024-02-24T07:04:32.156Z,104041.47
2024-02-24T07:09:36.239Z,104088.63
2024-02-24T07:14:39.996Z,104069.69
2024-02-24T07:19:43.177Z,104090.81
2024-02-24T07:24:47.109Z,104112.69
2024-02-24T07:29:50.992Z,104093.31
2024-02-24T07:34:56.976Z,104134.94
2024-02-24T07:40:00.079Z,104074.78
2024-02-24T07:45:05.028Z,104080.97
2024-02-24T07:50:09.207Z,104099.28
2024-02-24T07:55:12.769Z,104115.38
2024-02-24T08:00:16.629Z,104123.75
2024-02-24T08:05:20.148Z,104115.50
2024-02-24T08:10:25.484Z,104097.59
2024-02-24T08:15:30.263Z,104049.34
2024-02-24T08:20:36.589Z,104111.63
2024-02-24T08:25:40.787Z,104128.25
2024-02-24T08:30:44.871Z,104126.50
2024-02-24T08:35:48.834Z,104130.69
2024-02-24T08:40:52.772Z,104094.38
2024-02-24T08:45:57.193Z,104035.38
2024-02-24T08:51:01.523Z,104087.09
2024-02-24T08:56:04.748Z,104113.69
2024-02-24T09:01:07.999Z,104052.84
2024-02-24T09:06:11.708Z,104136.44
2024-02-24T09:11:15.852Z,104121.75
2024-02-24T09:16:19.835Z,104097.88
2024-02-24T09:21:23.959Z,104117.38
2024-02-24T09:26:27.804Z,104085.19
2024-02-24T09:31:30.815Z,104125.06
2024-02-24T09:36:34.023Z,104126.19
2024-02-24T09:41:38.658Z,104106.09
2024-02-24T09:46:44.624Z,104119.59
2024-02-24T09:51:49.531Z,104086.09
2024-02-24T09:56:55.102Z,104038.94
2024-02-24T10:01:59.396Z,104068.63
2024-02-24T10:07:02.228Z,104091.19
2024-02-24T10:12:05.726Z,104107.72
2024-02-24T10:17:09.740Z,104077.03
2024-02-24T10:22:20.602Z,104117.19
2024-02-24T10:27:27.949Z,104092.00
2024-02-24T10:32:31.439Z,104062.09
2024-02-24T10:37:56.411Z,104123.94
2024-02-24T10:43:02.450Z,104094.22
2024-02-24T10:48:08.829Z,104076.63
2024-02-24T10:53:15.353Z,104126.06
2024-02-24T10:58:21.045Z,104115.25
2024-02-24T11:03:25.956Z,104125.25
2024-02-24T11:08:44.616Z,104112.50
2024-02-24T11:13:59.982Z,104112.34
2024-02-24T11:19:14.039Z,104070.47
2024-02-24T11:24:20.540Z,104109.63
2024-02-24T11:29:28.932Z,104141.44
2024-02-24T11:34:35.584Z,104110.75
2024-02-24T11:39:44.710Z,104082.41
2024-02-24T11:44:48.637Z,104125.88
2024-02-24T11:49:53.669Z,104090.72
2024-02-24T11:54:56.632Z,104129.78
2024-02-24T11:59:59.672Z,104096.06
2024-02-24T12:05:16.012Z,104127.47
2024-02-24T12:10:19.490Z,104101.00
2024-02-24T12:15:23.159Z,104123.00
2024-02-24T12:20:27.581Z,104094.41
2024-02-24T12:25:31.634Z,104009.13
2024-02-24T12:30:41.338Z,104099.25
2024-02-24T12:35:44.345Z,104065.34
2024-02-24T12:40:47.720Z,104106.53
2024-02-24T12:45:53.351Z,104092.41
2024-02-24T12:50:57.577Z,104073.66
2024-02-24T12:56:02.719Z,104111.34
2024-02-24T13:01:08.395Z,104087.59
2024-02-24T13:06:14.414Z,104077.09
2024-02-24T13:11:18.356Z,104099.09
2024-02-24T13:16:22.155Z,104097.66
2024-02-24T13:21:25.120Z,104107.94
2024-02-24T13:26:27.960Z,104120.97
2024-02-24T13:31:32.578Z,104071.66
2024-02-24T13:36:36.311Z,104022.28
2024-02-24T13:41:39.501Z,104118.91
2024-02-24T13:46:48.069Z,104104.25
2024-02-24T13:51:52.816Z,104114.97
2024-02-24T13:56:55.850Z,104112.22
2024-02-24T14:01:58.937Z,104121.50
2024-02-24T14:07:02.168Z,104130.97
2024-02-24T14:12:05.728Z,104135.31
2024-02-24T14:17:08.810Z,104147.88
2024-02-24T14:22:13.335Z,104144.19
2024-02-24T14:27:16.394Z,104158.28
2024-02-24T14:32:20.067Z,104153.41
2024-02-24T14:37:24.718Z,104134.34
2024-02-24T14:42:27.534Z,104133.50
2024-02-24T14:47:31.415Z,104143.25
2024-02-24T14:52:34.667Z,104140.16
2024-02-24T14:57:37.835Z,104176.38
2024-02-24T15:02:49.225Z,104171.81
2024-02-24T15:08:03.529Z,104185.03
2024-02-24T15:13:06.978Z,104158.91
2024-02-24T15:18:09.850Z,104197.13
2024-02-24T15:23:15.069Z,104195.31
2024-02-24T15:28:19.550Z,104205.22
2024-02-24T15:33:23.677Z,104226.44
2024-02-24T15:38:26.865Z,104216.56
2024-02-24T15:43:30.815Z,104191.44
2024-02-24T15:48:36.123Z,104233.06
2024-02-24T15:53:42.627Z,104249.56
2024-02-24T15:58:46.235Z,104225.63
2024-02-24T16:03:49.147Z,104254.53
2024-02-24T16:08:54.045Z,104256.00
2024-02-24T16:13:59.963Z,104288.72
2024-02-24T16:19:06.896Z,104278.34
2024-02-24T16:24:10.645Z,104278.22
2024-02-24T16:29:14.267Z,104285.16
2024-02-24T16:34:19.219Z,104248.97
2024-02-24T16:39:24.581Z,104271.50
2024-02-24T16:44:28.571Z,104231.66
2024-02-24T16:49:32.815Z,104274.41
2024-02-24T16:54:38.068Z,104231.28
2024-02-24T16:59:43.179Z,104293.44
2024-02-24T17:04:47.536Z,104282.25
2024-02-24T17:09:51.280Z,104260.44
2024-02-24T17:14:55.008Z,104286.09
2024-02-24T17:19:58.323Z,104280.22
2024-02-24T17:25:01.107Z,104275.22
2024-02-24T17:30:08.690Z,104249.06
2024-02-24T17:35:12.868Z,104216.72
2024-02-24T17:40:17.189Z,104290.44
2024-02-24T17:45:21.715Z,104306.06
2024-02-24T17:50:26.298Z,104352.59
2024-02-24T17:55:29.614Z,104287.09
2024-02-24T18:00:33.139Z,104317.97
2024-02-24T18:05:40.294Z,104329.31
2024-02-24T18:10:48.148Z,104362.38
2024-02-24T18:15:51.578Z,104372.72
2024-02-24T18:20:55.355Z,104366.84
2024-02-24T18:25:58.433Z,104278.78
2024-02-24T18:31:03.561Z,104319.66
2024-02-24T18:36:07.930Z,104230.25
2024-02-24T18:41:12.309Z,104320.69
2024-02-24T18:46:20.236Z,104367.28
2024-02-24T18:51:23.540Z,104372.38
2024-02-24T18:56:27.707Z,104362.03
2024-02-24T19:01:32.483Z,104326.50
2024-02-24T19:06:36.452Z,104362.69
2024-02-24T19:11:41.224Z,104343.19
2024-02-24T19:16:44.623Z,104369.03
2024-02-24T19:21:47.976Z,104286.19
2024-02-24T19:26:51.297Z,104336.69
2024-02-24T19:31:56.163Z,104321.53
2024-02-24T19:36:59.948Z,104315.59
2024-02-24T19:42:04.649Z,104335.44
2024-02-24T19:47:11.362Z,104364.47
2024-02-24T19:52:17.520Z,104306.34
2024-02-24T19:57:21.847Z,104353.38
2024-02-24T20:02:25.670Z,104360.41
2024-02-24T20:07:29.809Z,104357.84
2024-02-24T20:12:33.055Z,104337.28
2024-02-24T20:17:37.291Z,104321.88
2024-02-24T20:22:40.113Z,104359.56
2024-02-24T20:27:42.865Z,104326.25
2024-02-24T20:32:47.775Z,104322.00
2024-02-24T20:37:51.003Z,104287.72
2024-02-24T20:42:53.687Z,104287.66
2024-02-24T20:47:59.025Z,104301.38
2024-02-24T20:53:02.184Z,104292.84
2024-02-24T20:58:05.248Z,104309.94
2024-02-24T21:03:08.127Z,104267.88
2024-02-24T21:08:10.908Z,104290.00
2024-02-24T21:13:13.789Z,104337.13
2024-02-24T21:18:17.610Z,104296.00
2024-02-24T21:23:20.543Z,104258.63
2024-02-24T21:28:23.992Z,104323.50
2024-02-24T21:33:27.364Z,104309.88
2024-02-24T21:38:31.689Z,104313.31
2024-02-24T21:43:34.758Z,104280.00
2024-02-24T21:48:41.131Z,104351.00
2024-02-24T21:53:43.853Z,104290.38
2024-02-24T21:58:46.844Z,104303.03
2024-02-24T22:03:50.328Z,104356.84
2024-02-24T22:08:53.257Z,104354.28
2024-02-24T22:13:58.460Z,104329.69
2024-02-24T22:19:01.512Z,104322.97
2024-02-24T22:24:05.541Z,104368.25
2024-02-24T22:29:09.102Z,104372.53
2024-02-24T22:34:14.156Z,104353.72
2024-02-24T22:39:16.837Z,104335.00
2024-02-24T22:44:20.366Z,104365.78
2024-02-24T22:49:23.227Z,104324.75
2024-02-24T22:54:27.781Z,104352.91
2024-02-24T22:59:32.891Z,104357.25
2024-02-24T23:04:38.778Z,104337.56
2024-02-24T23:09:41.716Z,104346.19
2024-02-24T23:14:46.365Z,104335.97
2024-02-24T23:19:49.787Z,104343.63
2024-02-24T23:24:53.247Z,104349.56
2024-02-24T23:29:56.054Z,104316.25
2024-02-24T23:34:58.836Z,104316.34
2024-02-24T23:40:01.772Z,104347.09
2024-02-24T23:45:07.619Z,104334.22
2024-02-24T23:50:10.627Z,104307.03
2024-02-24T23:55:13.162Z,104336.13
